createdAt,value
2018-12-02T00:00:24.731Z,4.50
2018-12-02T00:02:53.593Z,4.50
2018-12-02T00:05:21.927Z,4.50
2018-12-02T00:07:50.395Z,4.50
2018-12-02T00:10:19.511Z,4.50
2018-12-02T00:12:47.885Z,4.50
2018-12-02T00:15:20.532Z,4.50
2018-12-02T00:17:49.633Z,4.60
2018-12-02T00:20:18.043Z,4.60
2018-12-02T00:22:46.521Z,4.60
2018-12-02T00:25:15.597Z,4.50
2018-12-02T00:27:49.167Z,4.50
2018-12-02T00:30:20.769Z,4.60
2018-12-02T00:32:49.168Z,4.60
2018-12-02T00:35:18.750Z,4.50
2018-12-02T00:37:49.145Z,4.50
2018-12-02T00:40:19.749Z,4.60
2018-12-02T00:42:49.238Z,4.60
2018-12-02T00:45:18.887Z,4.60
2018-12-02T00:47:47.867Z,4.60
2018-12-02T00:50:17.974Z,4.50
2018-12-02T00:52:49.581Z,4.60
2018-12-02T00:55:21.904Z,4.60
2018-12-02T00:57:50.736Z,4.60
2018-12-02T01:00:19.115Z,4.60
2018-12-02T01:02:48.538Z,4.60
2018-12-02T01:05:19.030Z,4.60
2018-12-02T01:07:47.359Z,4.60
2018-12-02T01:10:17.496Z,4.70
2018-12-02T01:12:46.842Z,4.70
2018-12-02T01:15:16.249Z,4.70
2018-12-02T01:17:44.575Z,4.60
2018-12-02T01:20:15.859Z,4.70
2018-12-02T01:22:44.333Z,4.70
2018-12-02T01:25:13.296Z,4.70
2018-12-02T01:27:42.238Z,4.80
2018-12-02T01:30:22.377Z,4.80
2018-12-02T01:32:51.987Z,4.80
2018-12-02T01:35:20.501Z,4.70
2018-12-02T01:37:48.884Z,4.80
2018-12-02T01:40:18.658Z,4.70
2018-12-02T01:42:47.157Z,4.70
2018-12-02T01:45:18.429Z,4.70
2018-12-02T01:47:47.154Z,4.60
2018-12-02T01:50:16.407Z,4.70
2018-12-02T01:52:46.072Z,4.70
2018-12-02T01:55:14.561Z,4.70
2018-12-02T01:57:43.138Z,4.70
2018-12-02T02:00:16.692Z,4.70
2018-12-02T02:02:45.132Z,4.60
2018-12-02T02:05:13.881Z,4.60
2018-12-02T02:07:43.071Z,4.70
2018-12-02T02:10:13.722Z,4.70
2018-12-02T02:12:42.054Z,4.70
2018-12-02T02:15:12.071Z,4.70
2018-12-02T02:17:40.500Z,4.70
2018-12-02T02:20:10.717Z,4.70
2018-12-02T02:22:39.374Z,4.70
2018-12-02T02:25:09.850Z,4.70
2018-12-02T02:27:38.562Z,4.70
2018-12-02T02:30:10.778Z,4.70
2018-12-02T02:32:39.186Z,4.80
2018-12-02T02:35:07.889Z,4.80
2018-12-02T02:37:36.682Z,4.80
2018-12-02T02:40:14.724Z,4.80
2018-12-02T02:42:43.684Z,4.80
2018-12-02T02:45:12.927Z,4.80
2018-12-02T02:47:41.369Z,4.80
2018-12-02T02:50:13.625Z,4.90
2018-12-02T02:52:42.995Z,4.90
2018-12-02T02:55:11.379Z,4.90
2018-12-02T02:57:40.103Z,4.90
2018-12-02T03:00:11.382Z,4.90
2018-12-02T03:02:39.861Z,4.90
2018-12-02T03:05:09.261Z,4.90
2018-12-02T03:07:37.730Z,4.90
2018-12-02T03:10:09.601Z,5.00
2018-12-02T03:12:38.135Z,5.00
2018-12-02T03:15:08.266Z,5.00
2018-12-02T03:17:36.640Z,5.00
2018-12-02T03:20:07.390Z,5.00
2018-12-02T03:22:35.839Z,5.00
2018-12-02T03:25:04.879Z,5.00
2018-12-02T03:27:33.274Z,5.00
2018-12-02T03:30:01.602Z,5.00
2018-12-02T03:32:30.017Z,5.00
2018-12-02T03:34:58.531Z,5.00
2018-12-02T03:37:26.901Z,5.00
2018-12-02T03:39:55.268Z,5.00
2018-12-02T03:42:23.826Z,5.00
2018-12-02T03:44:52.142Z,4.90
2018-12-02T03:47:20.767Z,4.90
2018-12-02T03:49:49.259Z,4.90
2018-12-02T03:52:17.568Z,4.90
2018-12-02T03:54:45.942Z,4.90
2018-12-02T03:57:14.487Z,4.90
2018-12-02T03:59:42.812Z,4.90
2018-12-02T04:02:11.150Z,4.90
2018-12-02T04:04:40.462Z,4.90
2018-12-02T04:07:08.904Z,4.90
2018-12-02T04:09:37.223Z,4.80
2018-12-02T04:12:06.051Z,4.80
2018-12-02T04:14:34.455Z,4.90
2018-12-02T04:17:02.962Z,4.80
2018-12-02T04:19:31.580Z,4.80
2018-12-02T04:21:59.889Z,4.80
2018-12-02T04:24:28.218Z,4.70
2018-12-02T04:26:56.787Z,4.70
2018-12-02T04:29:25.127Z,4.80
2018-12-02T04:31:53.457Z,4.80
2018-12-02T04:34:21.964Z,4.80
2018-12-02T04:36:50.303Z,4.80
2018-12-02T04:39:18.647Z,4.70
2018-12-02T04:41:47.352Z,4.70
2018-12-02T04:44:15.695Z,4.70
2018-12-02T04:46:44.018Z,4.70
2018-12-02T04:49:12.547Z,4.70
2018-12-02T04:51:40.865Z,4.60
2018-12-02T04:54:09.239Z,4.60
2018-12-02T04:56:38.106Z,4.60
2018-12-02T04:59:06.513Z,4.60
2018-12-02T05:01:34.843Z,4.60
2018-12-02T05:04:03.280Z,4.60
2018-12-02T05:06:31.620Z,4.60
2018-12-02T05:09:00.041Z,4.70
2018-12-02T05:11:28.499Z,4.60
2018-12-02T05:13:56.826Z,4.60
2018-12-02T05:16:25.220Z,4.60
2018-12-02T05:18:53.939Z,4.70
2018-12-02T05:21:22.279Z,4.60
2018-12-02T05:23:50.654Z,4.60
2018-12-02T05:26:19.238Z,4.70
2018-12-02T05:28:47.629Z,4.70
2018-12-02T05:31:16.133Z,4.70
2018-12-02T05:33:44.573Z,4.70
2018-12-02T05:36:13.224Z,4.70
2018-12-02T05:38:41.815Z,4.70
2018-12-02T05:41:10.569Z,4.70
2018-12-02T05:43:38.915Z,4.70
2018-12-02T05:46:07.223Z,4.70
2018-12-02T05:48:35.933Z,4.70
2018-12-02T05:51:04.691Z,4.70
2018-12-02T05:53:32.999Z,4.70
2018-12-02T05:56:01.440Z,4.70
2018-12-02T05:58:29.811Z,4.60
2018-12-02T06:00:58.462Z,4.70
2018-12-02T06:03:27.032Z,4.70
2018-12-02T06:05:55.391Z,4.70
2018-12-02T06:08:23.773Z,4.70
2018-12-02T06:10:52.538Z,4.70
2018-12-02T06:13:20.957Z,4.70
2018-12-02T06:15:49.262Z,4.60
2018-12-02T06:18:17.717Z,4.70
2018-12-02T06:20:46.054Z,4.60
2018-12-02T06:23:14.428Z,4.60
2018-12-02T06:25:46.459Z,4.60
2018-12-02T06:28:11.467Z,4.60
2018-12-02T06:30:39.916Z,4.60
2018-12-02T06:33:08.648Z,4.60
2018-12-02T06:35:36.959Z,4.50
2018-12-02T06:38:06.533Z,4.50
2018-12-02T06:40:35.063Z,4.50
2018-12-02T06:43:03.414Z,4.40
2018-12-02T06:45:31.833Z,4.40
2018-12-02T06:48:00.754Z,4.30
2018-12-02T06:50:29.074Z,4.20
2018-12-02T06:52:57.690Z,4.10
2018-12-02T06:55:33.112Z,4.00
2018-12-02T06:58:14.723Z,4.00
2018-12-02T07:00:52.917Z,4.00
2018-12-02T07:03:48.344Z,3.90
2018-12-02T07:06:17.268Z,4.00
2018-12-02T07:08:45.566Z,4.10
2018-12-02T07:11:13.944Z,4.20
2018-12-02T07:13:42.436Z,4.20
2018-12-02T07:16:10.751Z,4.30
2018-12-02T07:18:41.152Z,4.30
2018-12-02T07:21:14.638Z,4.30
2018-12-02T07:23:43.953Z,4.30
2018-12-02T07:26:13.398Z,4.40
2018-12-02T07:28:42.388Z,4.40
2018-12-02T07:31:10.859Z,4.40
2018-12-02T07:33:39.151Z,4.40
2018-12-02T07:36:08.606Z,4.40
2018-12-02T07:38:47.633Z,4.50
2018-12-02T07:41:16.267Z,4.40
2018-12-02T07:43:44.650Z,4.40
2018-12-02T07:46:12.957Z,4.40
2018-12-02T07:48:41.533Z,4.50
2018-12-02T07:51:09.885Z,4.50
2018-12-02T07:53:38.222Z,4.50
2018-12-02T07:56:06.982Z,4.50
2018-12-02T07:58:35.346Z,4.60
2018-12-02T08:01:03.821Z,4.50
2018-12-02T08:03:32.752Z,4.50
2018-12-02T08:06:01.176Z,4.60
2018-12-02T08:08:29.461Z,4.60
2018-12-02T08:10:58.006Z,4.60
2018-12-02T08:13:26.710Z,4.60
2018-12-02T08:15:55.041Z,4.60
2018-12-02T08:18:23.506Z,4.60
2018-12-02T08:20:51.882Z,4.60
2018-12-02T08:23:20.268Z,4.60
2018-12-02T08:25:48.978Z,4.60
2018-12-02T08:28:17.571Z,4.70
2018-12-02T08:30:45.890Z,4.70
2018-12-02T08:33:14.632Z,4.70
2018-12-02T08:35:43.010Z,4.70
2018-12-02T08:38:11.707Z,4.80
2018-12-02T08:40:40.381Z,4.70
2018-12-02T08:43:09.191Z,4.70
2018-12-02T08:45:38.141Z,4.80
2018-12-02T08:48:06.284Z,4.80
2018-12-02T08:50:34.651Z,4.70
2018-12-02T08:53:02.980Z,4.80
2018-12-02T08:55:31.442Z,4.80
2018-12-02T08:57:59.805Z,4.80
2018-12-02T09:00:28.294Z,4.80
2018-12-02T09:02:57.995Z,4.80
2018-12-02T09:05:26.371Z,4.80
2018-12-02T09:07:56.029Z,4.80
2018-12-02T09:10:27.575Z,4.80
2018-12-02T09:13:02.306Z,4.80
2018-12-02T09:15:30.885Z,4.80
2018-12-02T09:17:59.204Z,4.80
2018-12-02T09:20:33.982Z,4.80
2018-12-02T09:23:02.492Z,4.80
2018-12-02T09:25:30.856Z,4.80
2018-12-02T09:27:59.381Z,4.90
2018-12-02T09:30:28.825Z,4.90
2018-12-02T09:32:57.196Z,4.90
2018-12-02T09:35:25.680Z,4.90
2018-12-02T09:37:54.073Z,4.90
2018-12-02T09:40:22.378Z,4.90
2018-12-02T09:42:51.869Z,5.00
2018-12-02T09:45:22.285Z,4.90
2018-12-02T09:47:50.607Z,4.90
2018-12-02T09:50:19.084Z,4.90
2018-12-02T09:52:47.459Z,5.00
2018-12-02T09:55:48.000Z,5.00
2018-12-02T09:58:24.340Z,5.10
2018-12-02T10:00:53.133Z,5.10
2018-12-02T10:03:21.533Z,5.10
2018-12-02T10:05:49.964Z,5.10
2018-12-02T10:08:18.886Z,5.10
2018-12-02T10:10:47.188Z,5.10
2018-12-02T10:13:17.560Z,5.00
2018-12-02T10:15:46.077Z,5.10
2018-12-02T10:18:14.637Z,5.00
2018-12-02T10:20:42.966Z,5.10
2018-12-02T10:23:11.755Z,5.10
2018-12-02T10:25:40.403Z,5.10
2018-12-02T10:28:09.734Z,5.10
2018-12-02T10:30:39.514Z,5.20
2018-12-02T10:33:08.076Z,5.30
2018-12-02T10:35:36.452Z,5.30
2018-12-02T10:38:05.816Z,5.30
2018-12-02T10:40:34.276Z,5.30
2018-12-02T10:43:02.646Z,5.30
2018-12-02T10:45:31.437Z,5.30
2018-12-02T10:48:00.732Z,5.30
2018-12-02T10:50:32.583Z,5.30
2018-12-02T10:53:02.243Z,5.30
2018-12-02T10:55:34.128Z,5.20
2018-12-02T10:58:02.491Z,5.20
2018-12-02T11:00:36.457Z,5.30
2018-12-02T11:03:04.953Z,5.20
2018-12-02T11:05:33.268Z,5.30
2018-12-02T11:08:01.903Z,5.30
2018-12-02T11:10:30.295Z,5.30
2018-12-02T11:12:58.606Z,5.30
2018-12-02T11:15:27.200Z,5.30
2018-12-02T11:17:55.613Z,5.30
2018-12-02T11:20:23.948Z,5.30
2018-12-02T11:22:52.378Z,5.30
2018-12-02T11:25:21.039Z,5.40
2018-12-02T11:27:49.501Z,5.40
2018-12-02T11:30:18.275Z,5.40
2018-12-02T11:32:47.571Z,5.40
2018-12-02T11:35:18.049Z,5.40
2018-12-02T11:37:47.085Z,5.40
2018-12-02T11:40:16.633Z,5.40
2018-12-02T11:42:44.988Z,5.40
2018-12-02T11:45:14.319Z,5.50
2018-12-02T11:47:43.831Z,5.40
2018-12-02T11:50:19.375Z,5.50
2018-12-02T11:52:47.830Z,5.40
2018-12-02T11:55:18.205Z,5.40
2018-12-02T11:57:46.742Z,5.50
2018-12-02T12:00:22.076Z,5.50
2018-12-02T12:02:50.951Z,5.50
2018-12-02T12:05:19.349Z,5.50
2018-12-02T12:07:48.744Z,5.50
2018-12-02T12:10:18.032Z,5.50
2018-12-02T12:12:47.284Z,5.50
2018-12-02T12:15:16.501Z,5.50
2018-12-02T12:17:45.037Z,5.50
2018-12-02T12:20:30.452Z,5.50
2018-12-02T12:22:58.830Z,5.50
2018-12-02T12:25:27.446Z,5.50
2018-12-02T12:27:56.739Z,5.50
2018-12-02T12:30:26.307Z,5.50
2018-12-02T12:32:54.951Z,5.60
2018-12-02T12:35:23.877Z,5.60
2018-12-02T12:37:52.339Z,5.60
2018-12-02T12:40:26.852Z,5.50
2018-12-02T12:43:11.732Z,5.60
2018-12-02T12:45:40.080Z,5.60
2018-12-02T12:48:08.444Z,5.60
2018-12-02T12:50:36.871Z,5.60
2018-12-02T12:53:05.648Z,5.60
2018-12-02T12:55:33.974Z,5.60
2018-12-02T12:58:03.388Z,5.70
2018-12-02T13:00:31.826Z,5.70
2018-12-02T13:03:00.548Z,5.80
2018-12-02T13:05:29.197Z,5.90
2018-12-02T13:07:57.564Z,5.90
2018-12-02T13:10:25.903Z,5.80
2018-12-02T13:12:54.277Z,5.90
2018-12-02T13:15:23.475Z,5.90
2018-12-02T13:18:01.653Z,5.90
2018-12-02T13:20:33.541Z,5.90
2018-12-02T13:23:01.900Z,5.90
2018-12-02T13:25:30.235Z,6.00
2018-12-02T13:27:58.540Z,6.00
2018-12-02T13:30:26.896Z,6.00
2018-12-02T13:32:55.583Z,6.00
2018-12-02T13:35:24.406Z,6.00
2018-12-02T13:37:52.850Z,6.00
2018-12-02T13:40:21.974Z,6.00
2018-12-02T13:42:52.733Z,6.00
2018-12-02T13:45:22.343Z,6.00
2018-12-02T13:47:50.650Z,6.00
2018-12-02T13:50:19.660Z,6.00
2018-12-02T13:52:49.230Z,6.10
2018-12-02T13:55:18.568Z,6.10
2018-12-02T13:57:47.483Z,6.20
2018-12-02T14:00:17.932Z,6.20
2018-12-02T14:02:47.565Z,6.20
2018-12-02T14:05:16.091Z,6.20
2018-12-02T14:07:44.574Z,6.20
2018-12-02T14:10:13.967Z,6.30
2018-12-02T14:12:44.118Z,6.30
2018-12-02T14:15:21.040Z,6.20
2018-12-02T14:17:51.030Z,6.30
2018-12-02T14:20:19.362Z,6.20
2018-12-02T14:22:47.788Z,6.30
2018-12-02T14:25:16.188Z,6.30
2018-12-02T14:27:46.257Z,6.30
2018-12-02T14:30:16.466Z,6.20
2018-12-02T14:32:44.812Z,6.20
2018-12-02T14:35:13.205Z,6.20
2018-12-02T14:37:41.743Z,6.20
2018-12-02T14:40:12.177Z,6.20
2018-12-02T14:42:41.791Z,6.20
2018-12-02T14:45:11.857Z,6.20
2018-12-02T14:47:40.221Z,6.20
2018-12-02T14:50:12.207Z,6.20
2018-12-02T14:52:40.705Z,6.20
2018-12-02T14:55:10.730Z,6.20
2018-12-02T14:57:39.093Z,6.20
2018-12-02T15:00:17.392Z,6.20
2018-12-02T15:02:45.737Z,6.20
2018-12-02T15:05:14.607Z,6.20
2018-12-02T15:07:44.394Z,6.20
2018-12-02T15:10:16.750Z,6.10
2018-12-02T15:12:46.062Z,6.10
2018-12-02T15:15:16.457Z,6.10
2018-12-02T15:17:45.743Z,6.10
2018-12-02T15:20:16.412Z,6.10
2018-12-02T15:22:44.851Z,6.10
2018-12-02T15:25:14.110Z,6.10
2018-12-02T15:27:43.176Z,6.10
2018-12-02T15:30:13.569Z,6.10
2018-12-02T15:32:42.928Z,6.20
2018-12-02T15:35:11.652Z,6.20
2018-12-02T15:37:40.132Z,6.20
2018-12-02T15:40:17.281Z,6.20
2018-12-02T15:42:50.245Z,6.30
2018-12-02T15:45:19.096Z,6.30
2018-12-02T15:47:47.489Z,6.20
2018-12-02T15:50:17.928Z,6.20
2018-12-02T15:52:46.813Z,6.20
2018-12-02T15:55:25.210Z,6.20
2018-12-02T15:57:53.707Z,6.20
2018-12-02T16:00:23.518Z,6.20
2018-12-02T16:02:51.982Z,6.10
2018-12-02T16:05:20.326Z,6.10
2018-12-02T16:07:48.876Z,6.10
2018-12-02T16:10:17.284Z,6.10
2018-12-02T16:12:47.656Z,6.10
2018-12-02T16:15:31.997Z,6.10
2018-12-02T16:18:00.403Z,6.10
2018-12-02T16:20:33.584Z,6.10
2018-12-02T16:23:01.972Z,6.10
2018-12-02T16:25:30.325Z,6.10
2018-12-02T16:27:58.644Z,6.10
2018-12-02T16:30:26.948Z,6.10
2018-12-02T16:32:55.361Z,6.10
2018-12-02T16:35:25.059Z,6.10
2018-12-02T16:37:54.512Z,6.10
2018-12-02T16:40:23.886Z,6.10
2018-12-02T16:42:53.395Z,6.10
2018-12-02T16:45:21.838Z,6.10
2018-12-02T16:47:54.318Z,6.10
2018-12-02T16:50:33.562Z,6.10
2018-12-02T16:53:07.421Z,6.10
2018-12-02T16:55:38.043Z,6.10
2018-12-02T16:58:11.861Z,6.10
2018-12-02T17:00:45.212Z,6.10
2018-12-02T17:03:13.594Z,6.00
2018-12-02T17:05:41.960Z,6.00
2018-12-02T17:08:10.652Z,6.00
2018-12-02T17:10:39.079Z,6.10
2018-12-02T17:13:07.522Z,6.00
2018-12-02T17:15:35.925Z,6.10
2018-12-02T17:18:04.324Z,6.10
2018-12-02T17:20:32.749Z,6.10
2018-12-02T17:23:01.046Z,6.10
2018-12-02T17:25:29.372Z,6.00
2018-12-02T17:27:57.982Z,6.00
2018-12-02T17:31:01.159Z,6.00
2018-12-02T17:33:29.573Z,6.00
2018-12-02T17:35:57.986Z,6.00
2018-12-02T17:38:26.777Z,6.10
2018-12-02T17:40:56.533Z,6.10
2018-12-02T17:43:24.971Z,6.10
2018-12-02T17:45:53.491Z,6.10
2018-12-02T17:48:21.945Z,6.10
2018-12-02T17:50:50.321Z,6.00
2018-12-02T17:53:18.932Z,6.00
2018-12-02T17:55:47.353Z,6.00
2018-12-02T17:58:15.851Z,6.00
2018-12-02T18:00:44.382Z,5.90
2018-12-02T18:03:15.717Z,6.00
2018-12-02T18:05:45.404Z,6.00
2018-12-02T18:08:13.974Z,6.00
2018-12-02T18:10:42.453Z,6.00
2018-12-02T18:13:10.983Z,6.00
2018-12-02T18:15:39.512Z,6.00
2018-12-02T18:18:08.401Z,6.00
2018-12-02T18:20:36.794Z,6.00
2018-12-02T18:23:05.292Z,6.00
2018-12-02T18:25:33.770Z,6.00
2018-12-02T18:28:02.115Z,6.00
2018-12-02T18:30:30.570Z,5.90
2018-12-02T18:33:00.179Z,6.00
2018-12-02T18:35:41.110Z,6.00
2018-12-02T18:38:15.071Z,6.00
2018-12-02T18:40:46.786Z,6.00
2018-12-02T18:43:15.316Z,6.00
2018-12-02T18:45:43.644Z,6.00
2018-12-02T18:48:12.294Z,6.00
2018-12-02T18:50:40.670Z,6.00
2018-12-02T18:53:09.111Z,6.00
2018-12-02T18:55:37.516Z,6.00
2018-12-02T18:58:06.287Z,6.00
2018-12-02T19:00:40.014Z,6.00
2018-12-02T19:03:08.368Z,6.10
2018-12-02T19:05:36.686Z,6.10
2018-12-02T19:08:05.435Z,6.10
2018-12-02T19:10:34.267Z,6.10
2018-12-02T19:13:02.667Z,6.20
2018-12-02T19:15:31.064Z,6.20
2018-12-02T19:17:59.449Z,6.20
2018-12-02T19:20:28.991Z,6.20
2018-12-02T19:23:00.009Z,6.20
2018-12-02T19:25:29.756Z,6.30
2018-12-02T19:27:58.133Z,6.30
2018-12-02T19:30:26.499Z,6.30
2018-12-02T19:32:55.133Z,6.30
2018-12-02T19:35:29.879Z,6.30
2018-12-02T19:38:02.703Z,6.30
2018-12-02T19:40:31.675Z,6.30
2018-12-02T19:42:59.965Z,6.30
2018-12-02T19:45:28.432Z,6.30
2018-12-02T19:47:56.793Z,6.30
2018-12-02T19:50:25.179Z,6.30
2018-12-02T19:52:54.309Z,6.30
2018-12-02T19:55:22.675Z,6.40
2018-12-02T19:57:51.119Z,6.40
2018-12-02T20:00:26.273Z,6.40
2018-12-02T20:02:55.073Z,6.30
2018-12-02T20:05:23.442Z,6.30
2018-12-02T20:07:57.323Z,6.20
2018-12-02T20:10:29.410Z,6.20
2018-12-02T20:13:01.596Z,6.30
2018-12-02T20:15:30.001Z,6.20
2018-12-02T20:17:58.347Z,6.20
2018-12-02T20:20:32.153Z,6.20
2018-12-02T20:23:00.497Z,6.20
2018-12-02T20:25:28.825Z,6.20
2018-12-02T20:27:59.263Z,6.20
2018-12-02T20:30:27.758Z,6.20
2018-12-02T20:32:56.156Z,6.10
2018-12-02T20:35:24.483Z,6.10
2018-12-02T20:37:52.807Z,6.10
2018-12-02T20:40:22.519Z,6.10
2018-12-02T20:42:51.308Z,6.10
2018-12-02T20:45:19.682Z,6.10
2018-12-02T20:47:48.083Z,6.20
2018-12-02T20:50:18.145Z,6.20
2018-12-02T20:52:47.177Z,6.10
2018-12-02T20:55:20.656Z,6.20
2018-12-02T20:57:49.646Z,6.20
2018-12-02T21:00:18.888Z,6.20
2018-12-02T21:02:51.685Z,6.20
2018-12-02T21:05:26.911Z,6.20
2018-12-02T21:07:55.307Z,6.30
2018-12-02T21:10:23.635Z,6.30
2018-12-02T21:12:52.194Z,6.20
2018-12-02T21:15:20.627Z,6.30
2018-12-02T21:17:48.974Z,6.20
2018-12-02T21:20:17.293Z,6.20
2018-12-02T21:22:45.663Z,6.20
2018-12-02T21:25:18.317Z,6.20
2018-12-02T21:27:46.706Z,6.30
2018-12-02T21:30:17.447Z,6.30
2018-12-02T21:32:45.877Z,6.20
2018-12-02T21:35:14.246Z,6.20
2018-12-02T21:37:42.672Z,6.20
2018-12-02T21:40:12.219Z,6.20
2018-12-02T21:42:40.601Z,6.20
2018-12-02T21:45:10.069Z,6.20
2018-12-02T21:47:39.082Z,6.20
2018-12-02T21:50:10.803Z,6.20
2018-12-02T21:52:39.199Z,6.20
2018-12-02T21:55:08.157Z,6.20
2018-12-02T21:57:36.913Z,6.20
2018-12-02T22:00:19.287Z,6.20
2018-12-02T22:02:47.811Z,6.10
2018-12-02T22:05:16.157Z,6.10
2018-12-02T22:07:44.534Z,6.10
2018-12-02T22:10:18.016Z,6.10
2018-12-02T22:12:46.344Z,6.10
2018-12-02T22:15:15.141Z,6.10
2018-12-02T22:17:43.474Z,6.10
2018-12-02T22:20:15.811Z,6.10
2018-12-02T22:22:44.270Z,6.10
2018-12-02T22:25:14.594Z,6.10
2018-12-02T22:27:44.020Z,6.10
2018-12-02T22:30:16.479Z,6.10
2018-12-02T22:32:45.001Z,6.10
2018-12-02T22:35:14.176Z,6.10
2018-12-02T22:37:42.849Z,6.10
2018-12-02T22:40:24.007Z,6.10
2018-12-02T22:42:53.550Z,6.10
2018-12-02T22:45:23.905Z,6.10
2018-12-02T22:47:52.253Z,6.10
2018-12-02T22:50:21.642Z,6.10
2018-12-02T22:52:51.140Z,6.10
2018-12-02T22:55:19.616Z,6.10
2018-12-02T22:57:47.905Z,6.10
2018-12-02T23:02:30.464Z,6.00
2018-12-02T23:04:59.025Z,6.00
2018-12-02T23:07:27.345Z,6.00
2018-12-02T23:09:55.812Z,6.00
2018-12-02T23:12:24.153Z,6.00
2018-12-02T23:14:52.495Z,6.00
2018-12-02T23:17:22.208Z,6.00
2018-12-02T23:19:50.566Z,6.00
2018-12-02T23:22:18.882Z,6.00
2018-12-02T23:24:47.187Z,5.90
2018-12-02T23:27:15.699Z,5.90
2018-12-02T23:29:44.062Z,5.90
2018-12-02T23:32:12.364Z,6.00
2018-12-02T23:34:40.866Z,5.90
2018-12-02T23:37:09.189Z,5.90
2018-12-02T23:39:38.646Z,6.00
2018-12-02T23:42:05.954Z,6.00
2018-12-02T23:44:34.284Z,6.00
2018-12-02T23:47:02.695Z,6.00
2018-12-02T23:49:31.097Z,5.90
2018-12-02T23:51:59.394Z,5.90
2018-12-02T23:54:27.704Z,5.90
2018-12-02T23:56:56.072Z,5.90
2018-12-02T23:59:24.417Z,6.00
